createdAt,value
2016-09-15T00:03:45.815Z,"    0"
2016-09-15T00:08:43.058Z,"    0"
2016-09-15T00:13:39.685Z,"    0"
2016-09-15T00:18:36.763Z,"    0"
2016-09-15T00:23:33.301Z,"    0"
2016-09-15T00:28:30.050Z,"    0"
2016-09-15T00:33:26.638Z,"    0"
2016-09-15T00:38:23.225Z,"    0"
2016-09-15T00:43:20.095Z,"    0"
2016-09-15T00:48:16.756Z,"    0"
2016-09-15T00:53:13.365Z,"    0"
2016-09-15T00:58:10.085Z,"    0"
2016-09-15T01:03:06.584Z,"    0"
2016-09-15T01:08:03.284Z,"    0"
2016-09-15T01:13:00.051Z,"    0"
2016-09-15T01:17:56.821Z,"    0"
2016-09-15T01:22:53.612Z,"    0"
2016-09-15T01:27:50.181Z,"    0"
2016-09-15T01:32:46.750Z,"    0"
2016-09-15T01:37:45.749Z,"    0"
2016-09-15T01:42:41.932Z,"    0"
2016-09-15T01:47:38.626Z,"    0"
2016-09-15T01:52:35.275Z,"    0"
2016-09-15T01:57:31.929Z,"    0"
2016-09-15T02:02:31.162Z,"    0"
2016-09-15T02:07:27.164Z,"    0"
2016-09-15T02:12:23.776Z,"    0"
2016-09-15T02:17:20.863Z,"    0"
2016-09-15T02:22:17.625Z,"    0"
2016-09-15T02:27:14.206Z,"    0"
2016-09-15T02:32:10.785Z,"    0"
2016-09-15T02:37:07.707Z,"    0"
2016-09-15T02:42:04.389Z,"    0"
2016-09-15T02:47:00.863Z,"    0"
2016-09-15T02:51:57.940Z,"    0"
2016-09-15T02:56:54.668Z,"    0"
2016-09-15T03:01:51.308Z,"    0"
2016-09-15T03:06:47.901Z,"    0"
2016-09-15T03:11:44.743Z,"    0"
2016-09-15T03:16:41.203Z,"    0"
2016-09-15T03:21:37.956Z,"    0"
2016-09-15T03:26:34.155Z,"    0"
2016-09-15T03:31:31.250Z,"    0"
2016-09-15T03:36:29.069Z,"    0"
2016-09-15T03:41:25.378Z,"    0"
2016-09-15T03:46:22.103Z,"    0"
2016-09-15T03:51:18.740Z,"    0"
2016-09-15T03:56:15.355Z,"    0"
2016-09-15T04:01:11.920Z,"    0"
2016-09-15T04:06:08.544Z,"    0"
2016-09-15T04:11:05.066Z,"    0"
2016-09-15T04:16:01.548Z,"    0"
2016-09-15T04:20:58.110Z,"    0"
2016-09-15T04:25:54.678Z,"    0"
2016-09-15T04:30:51.071Z,"    0"
2016-09-15T04:35:47.905Z,"    0"
2016-09-15T04:40:44.600Z,"    0"
2016-09-15T04:45:41.138Z,"    0"
2016-09-15T04:50:38.172Z,"    0"
2016-09-15T04:55:34.921Z,"    0"
2016-09-15T05:00:31.330Z,"    0"
2016-09-15T05:05:28.096Z,"    0"
2016-09-15T05:10:25.005Z,"    0"
2016-09-15T05:15:21.620Z,"    0"
2016-09-15T05:25:18.671Z,"    0"
2016-09-15T05:30:15.347Z,"    0"
2016-09-15T05:35:12.306Z,"    0"
2016-09-15T05:40:08.985Z,"    0"
2016-09-15T05:45:05.700Z,"    0"
2016-09-15T05:50:02.647Z,"    5"
2016-09-15T05:54:59.259Z,"    5"
2016-09-15T05:59:55.958Z,"    5"
2016-09-15T06:04:52.518Z,"    5"
2016-09-15T06:09:49.332Z,"    5"
2016-09-15T06:14:46.301Z,"    5"
2016-09-15T06:19:43.016Z,"    5"
2016-09-15T06:24:39.807Z,"   10"
2016-09-15T06:29:36.662Z,"   10"
2016-09-15T06:34:34.568Z,"   10"
2016-09-15T06:39:31.029Z,"   10"
2016-09-15T06:44:27.658Z,"   10"
2016-09-15T06:49:24.302Z,"   10"
2016-09-15T06:54:20.807Z,"   10"
2016-09-15T06:59:17.550Z,"   10"
2016-09-15T07:04:14.394Z,"   10"
2016-09-15T07:09:11.011Z,"   15"
2016-09-15T07:14:07.750Z,"   15"
2016-09-15T07:19:04.329Z,"   10"
2016-09-15T07:24:01.038Z,"   25"
2016-09-15T07:28:58.057Z,"   15"
2016-09-15T07:33:55.085Z,"   15"
2016-09-15T07:38:51.816Z,"   15"
2016-09-15T07:43:48.407Z,"   15"
2016-09-15T07:48:45.201Z,"   15"
2016-09-15T07:53:43.105Z,"   20"
2016-09-15T07:58:39.499Z,"   20"
2016-09-15T08:03:36.304Z,"   25"
2016-09-15T08:08:33.401Z,"   40"
2016-09-15T08:13:30.413Z,"   45"
2016-09-15T08:18:27.325Z,"   45"
2016-09-15T08:23:24.235Z,"   45"
2016-09-15T08:28:21.236Z,"   45"
2016-09-15T08:33:18.240Z,"   45"
2016-09-15T08:38:15.120Z,"   45"
2016-09-15T08:43:12.032Z,"   45"
2016-09-15T08:48:08.951Z,"   65"
2016-09-15T08:53:05.704Z,"   60"
2016-09-15T08:58:02.442Z,"   20"
2016-09-15T09:02:58.828Z,"   15"
2016-09-15T09:07:55.430Z,"   15"
2016-09-15T09:12:51.777Z,"   15"
2016-09-15T09:17:48.310Z,"   15"
2016-09-15T09:22:44.854Z,"   15"
2016-09-15T09:27:41.574Z,"   15"
2016-09-15T09:32:38.276Z,"   15"
2016-09-15T09:37:37.319Z,"   15"
2016-09-15T09:42:33.312Z,"   15"
2016-09-15T09:47:32.417Z,"   15"
2016-09-15T09:52:28.545Z,"   15"
2016-09-15T09:57:25.325Z,"   15"
2016-09-15T10:02:22.152Z,"   10"
2016-09-15T10:07:18.744Z,"   10"
2016-09-15T10:12:15.379Z,"   10"
2016-09-15T10:17:12.035Z,"   10"
2016-09-15T10:22:08.810Z,"   10"
2016-09-15T10:27:05.731Z,"   10"
2016-09-15T10:32:02.494Z,"   10"
2016-09-15T10:36:59.178Z,"   10"
2016-09-15T10:41:55.852Z,"   10"
2016-09-15T10:46:52.413Z,"   10"
2016-09-15T10:51:49.193Z,"   10"
2016-09-15T10:56:46.984Z,"   10"
2016-09-15T11:01:43.444Z,"   10"
2016-09-15T11:06:40.312Z,"   10"
2016-09-15T11:11:40.010Z,"   10"
2016-09-15T11:16:36.570Z,"   10"
2016-09-15T11:21:33.201Z,"   10"
2016-09-15T11:26:29.855Z,"   10"
2016-09-15T11:31:26.919Z,"   10"
2016-09-15T11:36:23.530Z,"   10"
2016-09-15T11:41:20.310Z,"   10"
2016-09-15T11:46:16.972Z,"   10"
2016-09-15T11:51:13.737Z,"   10"
2016-09-15T11:56:10.370Z,"   10"
2016-09-15T12:01:06.926Z,"   10"
2016-09-15T12:06:03.646Z,"   10"
2016-09-15T12:11:00.375Z,"   10"
2016-09-15T12:15:57.216Z,"   10"
2016-09-15T12:20:54.367Z,"   10"
2016-09-15T12:25:50.997Z,"   10"
2016-09-15T12:30:48.235Z,"   10"
2016-09-15T12:35:44.925Z,"   10"
2016-09-15T12:40:41.682Z,"   10"
2016-09-15T12:45:38.381Z,"   10"
2016-09-15T12:50:34.961Z,"   10"
2016-09-15T12:55:31.733Z,"    5"
2016-09-15T13:00:28.679Z,"    5"
2016-09-15T13:05:25.391Z,"    5"
2016-09-15T13:10:24.525Z,"    5"
2016-09-15T13:15:20.715Z,"    5"
2016-09-15T13:20:17.383Z,"    5"
2016-09-15T13:25:13.809Z,"    5"
2016-09-15T13:30:10.390Z,"    5"
2016-09-15T13:35:07.169Z,"    5"
2016-09-15T13:40:04.387Z,"    5"
2016-09-15T13:45:00.996Z,"    5"
2016-09-15T13:49:57.588Z,"    5"
2016-09-15T13:54:54.277Z,"    5"
2016-09-15T13:59:51.436Z,"    5"
2016-09-15T14:04:48.159Z,"    5"
2016-09-15T14:09:50.829Z,"    5"
2016-09-15T14:14:46.382Z,"    5"
2016-09-15T14:19:45.605Z,"    5"
2016-09-15T14:24:42.315Z,"    5"
2016-09-15T14:29:39.095Z,"    5"
2016-09-15T14:34:35.997Z,"    5"
2016-09-15T14:39:32.721Z,"    5"
2016-09-15T14:44:29.630Z,"    5"
2016-09-15T14:49:26.547Z,"    5"
2016-09-15T14:54:23.179Z,"    5"
2016-09-15T14:59:19.748Z,"    5"
2016-09-15T15:04:16.428Z,"    5"
2016-09-15T15:09:13.113Z,"    5"
2016-09-15T15:14:09.809Z,"    5"
2016-09-15T15:19:06.691Z,"    5"
2016-09-15T15:24:03.577Z,"    5"
2016-09-15T15:29:00.199Z,"    5"
2016-09-15T15:33:56.837Z,"    5"
2016-09-15T15:38:53.527Z,"    5"
2016-09-15T15:43:52.671Z,"    5"
2016-09-15T15:48:48.775Z,"    5"
2016-09-15T15:53:45.974Z,"    5"
2016-09-15T15:58:42.805Z,"    5"
2016-09-15T16:03:39.421Z,"    5"
2016-09-15T16:08:37.591Z,"    5"
2016-09-15T16:13:33.855Z,"    0"
2016-09-15T16:18:30.448Z,"    0"
2016-09-15T16:23:27.104Z,"    0"
2016-09-15T16:28:23.750Z,"    0"
2016-09-15T16:33:20.553Z,"    0"
2016-09-15T16:38:17.318Z,"    0"
2016-09-15T16:43:13.998Z,"    0"
2016-09-15T16:48:10.875Z,"    0"
2016-09-15T16:53:07.443Z,"    0"
2016-09-15T16:58:04.117Z,"    0"
2016-09-15T17:03:01.212Z,"    0"
2016-09-15T17:07:58.008Z,"    0"
2016-09-15T17:12:54.726Z,"    0"
2016-09-15T17:17:51.367Z,"    0"
2016-09-15T17:22:48.089Z,"    0"
2016-09-15T17:27:45.129Z,"    0"
2016-09-15T17:32:41.559Z,"    0"
2016-09-15T17:37:38.398Z,"    0"
2016-09-15T17:42:35.123Z,"    0"
2016-09-15T17:47:31.818Z,"    0"
2016-09-15T17:52:30.813Z,"    0"
2016-09-15T17:57:26.830Z,"    0"
2016-09-15T18:02:23.577Z,"    0"
2016-09-15T18:07:20.167Z,"    0"
2016-09-15T18:12:17.100Z,"    0"
2016-09-15T18:17:13.690Z,"    0"
2016-09-15T18:22:10.378Z,"    0"
2016-09-15T18:27:07.024Z,"    0"
2016-09-15T18:32:04.521Z,"    0"
2016-09-15T18:37:01.233Z,"    0"
2016-09-15T18:41:57.854Z,"    0"
2016-09-15T18:46:54.461Z,"    0"
2016-09-15T18:51:51.056Z,"    0"
2016-09-15T18:56:47.615Z,"    0"
2016-09-15T19:01:44.137Z,"    0"
2016-09-15T19:06:40.740Z,"    0"
2016-09-15T19:11:37.189Z,"    0"
2016-09-15T19:16:34.186Z,"    0"
2016-09-15T19:21:30.981Z,"    0"
2016-09-15T19:26:27.682Z,"    0"
2016-09-15T19:31:24.397Z,"    0"
2016-09-15T19:36:21.089Z,"    0"
2016-09-15T19:41:17.755Z,"    0"
2016-09-15T19:46:14.698Z,"    0"
2016-09-15T19:51:11.319Z,"    0"
2016-09-15T19:56:07.749Z,"    0"
2016-09-15T20:01:04.402Z,"    0"
2016-09-15T20:06:01.034Z,"    0"
2016-09-15T20:10:57.547Z,"    0"
2016-09-15T20:15:54.418Z,"    0"
2016-09-15T20:20:51.070Z,"    0"
2016-09-15T20:25:47.792Z,"    0"
2016-09-15T20:30:44.494Z,"    0"
2016-09-15T20:35:41.099Z,"    0"
2016-09-15T20:40:37.983Z,"    0"
2016-09-15T20:45:34.519Z,"    0"
2016-09-15T20:50:31.266Z,"    0"
2016-09-15T20:55:30.488Z,"    0"
2016-09-15T21:00:26.636Z,"    0"
2016-09-15T21:05:23.170Z,"    0"
2016-09-15T21:10:19.840Z,"    0"
2016-09-15T21:15:16.499Z,"    0"
2016-09-15T21:20:13.640Z,"    0"
2016-09-15T21:25:13.283Z,"    0"
2016-09-15T21:30:09.581Z,"    0"
2016-09-15T21:35:06.221Z,"    0"
2016-09-15T21:40:03.113Z,"    0"
2016-09-15T21:44:59.684Z,"    0"
2016-09-15T21:49:56.571Z,"    0"
2016-09-15T21:54:53.335Z,"    0"
2016-09-15T21:59:49.856Z,"    0"
2016-09-15T22:04:47.040Z,"    0"
2016-09-15T22:09:44.167Z,"    0"
2016-09-15T22:14:40.598Z,"    0"
2016-09-15T22:19:37.067Z,"    0"
2016-09-15T22:24:33.834Z,"    0"
2016-09-15T22:29:30.407Z,"    0"
2016-09-15T22:34:27.159Z,"    0"
2016-09-15T22:39:23.725Z,"    0"
2016-09-15T22:44:20.354Z,"    0"
2016-09-15T22:49:17.149Z,"    0"
2016-09-15T22:54:13.798Z,"    0"
2016-09-15T22:59:10.386Z,"    0"
2016-09-15T23:04:07.369Z,"    0"
2016-09-15T23:09:03.979Z,"    0"
2016-09-15T23:14:00.753Z,"    0"
2016-09-15T23:18:57.481Z,"    0"
2016-09-15T23:23:54.145Z,"    0"
2016-09-15T23:28:51.308Z,"    0"
2016-09-15T23:33:47.988Z,"    0"
2016-09-15T23:38:44.575Z,"    0"
2016-09-15T23:43:40.982Z,"    0"
2016-09-15T23:48:37.629Z,"    0"
2016-09-15T23:53:34.220Z,"    0"
2016-09-15T23:58:32.138Z,"    0"
